Time;durP1;ratioP1;P1;durP2;ratioP2;P2;SDS_P1;SDS_P2;PMS_P1;PMS_P2;Temp;Humidity;BMP_temperature;BMP_pressure;BME280_temperature;BME280_humidity;BME280_pressure;Samples;Min_cycle;Max_cycle;Signal;HPM_P1;HPM_P2
2023/09/05 00:02:16;;;;;;;13.05;11.63;;;16.40;99.90;;;;;;5076984;28;20068;-57
2023/09/05 00:04:47;;;;;;;13.55;12.25;;;16.30;99.90;;;;;;5069503;28;20039;-58
2023/09/05 00:07:14;;;;;;;15.15;12.82;;;16.30;99.90;;;;;;5064881;28;20072;-57
2023/09/05 00:09:39;;;;;;;13.10;11.77;;;16.20;99.90;;;;;;5059754;28;20043;-57
2023/09/05 00:12:06;;;;;;;12.88;11.57;;;16.20;99.90;;;;;;5083587;28;20036;-57
2023/09/05 00:14:32;;;;;;;14.68;13.13;;;16.20;99.90;;;;;;5049997;28;20549;-59
2023/09/05 00:17:32;;;;;;;13.95;12.50;;;16.10;99.90;;;;;;5088019;28;20043;-56
2023/09/05 00:19:58;;;;;;;16.58;14.85;;;16.10;99.90;;;;;;5064868;28;20199;-58
2023/09/05 00:22:24;;;;;;;16.25;14.55;;;16.10;99.90;;;;;;5049977;28;20134;-56
2023/09/05 00:24:49;;;;;;;19.35;15.70;;;16.10;99.90;;;;;;5081426;28;20045;-57
2023/09/05 00:27:15;;;;;;;15.02;13.38;;;16.10;99.90;;;;;;5063974;28;20043;-57
2023/09/05 00:29:42;;;;;;;12.63;11.43;;;16.00;99.90;;;;;;5064060;28;20086;-57
2023/09/05 00:39:26;;;;;;;16.98;14.52;;;16.00;99.90;;;;;;5071018;28;20410;-59
2023/09/05 00:41:54;;;;;;;14.48;13.07;;;15.90;99.90;;;;;;5038611;28;20037;-59
2023/09/05 00:44:20;;;;;;;16.80;15.02;;;15.80;99.90;;;;;;5008911;28;20071;-58
2023/09/05 00:46:46;;;;;;;16.27;13.57;;;15.90;99.90;;;;;;5046383;28;20391;-58
2023/09/05 00:49:15;;;;;;;14.68;13.18;;;15.90;99.90;;;;;;5029757;28;20352;-58
2023/09/05 00:51:43;;;;;;;15.50;12.82;;;15.80;99.90;;;;;;5009573;28;20136;-57
2023/09/05 00:54:10;;;;;;;11.07;9.98;;;15.80;99.90;;;;;;5018791;28;20104;-56
2023/09/05 00:56:37;;;;;;;12.32;11.13;;;15.80;99.90;;;;;;5026179;28;20072;-57
2023/09/05 00:59:04;;;;;;;14.63;13.00;;;15.80;99.90;;;;;;5043164;28;20040;-59
2023/09/05 01:01:30;;;;;;;16.23;13.63;;;15.80;99.90;;;;;;5023794;28;20042;-58
2023/09/05 01:03:57;;;;;;;12.45;11.25;;;15.80;99.90;;;;;;5008641;28;20071;-58
2023/09/05 01:06:51;;;;;;;16.20;14.50;;;15.80;99.90;;;;;;5031010;28;20115;-54
2023/09/05 01:09:41;;;;;;;15.68;13.60;;;15.80;99.90;;;;;;5015524;28;20488;-56
2023/09/05 01:12:07;;;;;;;13.07;11.38;;;15.80;99.90;;;;;;5044160;28;20065;-58
2023/09/05 01:14:33;;;;;;;13.55;12.23;;;15.80;99.90;;;;;;5022596;28;20041;-57
2023/09/05 01:17:02;;;;;;;12.80;11.20;;;15.80;99.90;;;;;;5026425;28;20048;-57
2023/09/05 01:19:29;;;;;;;14.48;12.02;;;15.80;99.90;;;;;;5026345;28;20098;-55
2023/09/05 01:22:20;;;;;;;14.68;13.15;;;15.80;99.90;;;;;;5020096;28;20037;-56
2023/09/05 01:24:49;;;;;;;14.27;12.73;;;15.80;99.90;;;;;;5021300;28;20041;-56
2023/09/05 01:27:22;;;;;;;12.65;10.82;;;15.70;99.90;;;;;;5022863;28;20049;-58
2023/09/05 01:29:49;;;;;;;12.27;10.95;;;15.70;99.90;;;;;;5022820;28;20039;-58
2023/09/05 01:32:16;;;;;;;14.02;12.57;;;15.70;99.90;;;;;;5041802;28;20689;-55
2023/09/05 01:34:42;;;;;;;13.13;11.75;;;15.70;99.90;;;;;;5015212;28;20632;-58
2023/09/05 01:37:14;;;;;;;13.80;12.48;;;15.70;99.90;;;;;;5043300;28;20165;-57
2023/09/05 01:39:40;;;;;;;14.20;12.40;;;15.70;99.90;;;;;;5013928;28;20037;-55
2023/09/05 01:42:05;;;;;;;12.35;11.15;;;15.70;99.90;;;;;;5048933;28;20044;-57
2023/09/05 01:44:36;;;;;;;14.32;12.85;;;15.70;99.90;;;;;;5025143;28;20044;-59
2023/09/05 01:47:02;;;;;;;12.98;11.68;;;15.70;99.90;;;;;;5026001;28;20033;-59
2023/09/05 01:49:28;;;;;;;15.15;11.93;;;15.70;99.90;;;;;;5046716;28;20464;-55
2023/09/05 01:51:54;;;;;;;13.52;12.18;;;15.70;99.90;;;;;;5046631;28;20144;-59
2023/09/05 01:54:20;;;;;;;13.50;11.77;;;15.70;99.90;;;;;;5024038;28;20047;-57
2023/09/05 01:56:46;;;;;;;13.27;11.77;;;15.70;99.90;;;;;;5033180;28;20092;-56
2023/09/05 01:59:12;;;;;;;13.98;11.90;;;15.70;99.90;;;;;;5052578;28;20053;-56
2023/09/05 02:01:38;;;;;;;15.40;12.77;;;15.70;99.90;;;;;;5021046;28;20063;-58
2023/09/05 02:04:04;;;;;;;15.13;13.57;;;15.60;99.90;;;;;;5024195;28;20045;-58
2023/09/05 02:06:30;;;;;;;13.88;12.45;;;15.60;99.90;;;;;;5045487;28;20033;-57
2023/09/05 02:08:56;;;;;;;13.23;11.93;;;15.70;99.90;;;;;;5026396;28;20028;-58
2023/09/05 02:11:22;;;;;;;17.75;12.32;;;15.60;99.90;;;;;;5049247;28;20041;-58
2023/09/05 02:13:47;;;;;;;14.93;13.52;;;15.60;99.90;;;;;;5012129;28;20459;-57
2023/09/05 02:16:18;;;;;;;13.43;11.93;;;15.60;99.90;;;;;;5011240;28;20095;-56
2023/09/05 02:18:47;;;;;;;14.02;12.63;;;15.60;99.90;;;;;;5022435;28;20052;-58
2023/09/05 02:21:13;;;;;;;17.17;14.65;;;15.50;99.90;;;;;;5032718;28;20040;-56
2023/09/05 02:23:39;;;;;;;14.45;12.98;;;15.50;99.90;;;;;;5032333;28;20041;-58
2023/09/05 02:26:05;;;;;;;14.55;13.10;;;15.50;99.90;;;;;;5034385;28;20029;-59
2023/09/05 02:28:30;;;;;;;16.52;13.48;;;15.50;99.90;;;;;;5028598;28;20029;-58
2023/09/05 02:30:57;;;;;;;16.38;13.57;;;15.50;99.90;;;;;;5023674;28;20079;-57
2023/09/05 02:33:23;;;;;;;16.40;13.35;;;15.50;99.90;;;;;;5029376;28;20049;-58
2023/09/05 02:35:49;;;;;;;16.02;14.30;;;15.50;99.90;;;;;;5014728;28;20046;-57
2023/09/05 02:38:15;;;;;;;16.40;14.60;;;15.50;99.90;;;;;;5021980;28;20102;-55
2023/09/05 02:40:45;;;;;;;15.32;13.80;;;15.40;99.90;;;;;;5031527;28;20041;-59
2023/09/05 02:43:11;;;;;;;18.90;15.02;;;15.40;99.90;;;;;;5043891;28;20451;-58
2023/09/05 02:45:37;;;;;;;16.73;14.70;;;15.30;99.90;;;;;;5025608;28;20089;-59
2023/09/05 02:48:03;;;;;;;18.80;14.23;;;15.30;99.90;;;;;;5033894;28;20048;-58
2023/09/05 02:50:29;;;;;;;14.18;12.80;;;15.30;99.90;;;;;;5025786;28;20519;-58
2023/09/05 02:52:54;;;;;;;18.08;14.35;;;15.30;99.90;;;;;;5025795;28;20046;-57
2023/09/05 02:55:20;;;;;;;17.77;15.57;;;15.30;99.90;;;;;;5041186;28;20125;-58
2023/09/05 02:57:46;;;;;;;15.57;13.50;;;15.30;99.90;;;;;;5046848;28;20036;-58
2023/09/05 03:00:12;;;;;;;18.30;16.40;;;15.30;99.90;;;;;;5034885;28;20145;-57
2023/09/05 03:02:40;;;;;;;16.58;14.93;;;15.30;99.90;;;;;;5047430;28;20566;-58
2023/09/05 03:05:06;;;;;;;15.48;13.73;;;15.30;99.90;;;;;;5026831;28;20084;-59
2023/09/05 03:07:32;;;;;;;18.58;15.00;;;15.30;99.90;;;;;;5009416;28;20066;-59
2023/09/05 03:09:58;;;;;;;16.10;14.38;;;15.30;99.90;;;;;;5008778;28;20333;-59
2023/09/05 03:12:24;;;;;;;17.40;15.40;;;15.20;99.90;;;;;;5030556;28;20186;-58
2023/09/05 03:14:49;;;;;;;17.25;14.95;;;15.20;99.90;;;;;;5042987;28;20137;-55
2023/09/05 03:17:15;;;;;;;18.70;15.18;;;15.20;99.90;;;;;;5013581;28;20471;-57
2023/09/05 03:19:41;;;;;;;17.70;15.98;;;15.10;99.90;;;;;;5044377;28;20036;-58
2023/09/05 03:22:07;;;;;;;17.85;15.98;;;15.10;99.90;;;;;;5018596;28;20090;-57
2023/09/05 03:24:34;;;;;;;17.45;15.75;;;15.10;99.90;;;;;;5043969;28;20123;-58
2023/09/05 03:27:00;;;;;;;17.60;15.13;;;15.10;99.90;;;;;;5031747;28;20056;-58
2023/09/05 03:29:26;;;;;;;16.92;15.13;;;15.10;99.90;;;;;;5044723;28;20041;-59
2023/09/05 03:31:52;;;;;;;15.13;13.60;;;15.10;99.90;;;;;;5031460;28;20041;-58
2023/09/05 03:34:18;;;;;;;16.20;14.50;;;15.10;99.90;;;;;;5027901;28;20053;-59
2023/09/05 03:36:44;;;;;;;18.60;16.35;;;15.10;99.90;;;;;;5041687;28;20552;-58
2023/09/05 03:39:10;;;;;;;17.45;15.75;;;15.10;99.90;;;;;;5029741;28;20062;-58
2023/09/05 03:41:36;;;;;;;18.20;16.10;;;15.10;99.90;;;;;;5007504;28;20045;-58
2023/09/05 03:44:01;;;;;;;19.77;16.35;;;15.00;99.90;;;;;;5025527;28;20124;-58
2023/09/05 03:46:27;;;;;;;18.67;16.00;;;15.00;99.90;;;;;;5042512;28;20037;-58
2023/09/05 03:48:55;;;;;;;20.40;15.60;;;15.00;99.90;;;;;;5043251;28;20033;-58
2023/09/05 03:51:21;;;;;;;16.98;15.27;;;15.00;99.90;;;;;;5048021;28;20412;-58
2023/09/05 03:53:47;;;;;;;16.67;15.02;;;15.00;99.90;;;;;;5029439;28;20134;-58
2023/09/05 03:56:12;;;;;;;17.88;16.05;;;14.90;99.90;;;;;;5040808;28;20444;-57
2023/09/05 03:58:39;;;;;;;23.38;15.50;;;14.90;99.90;;;;;;5026026;28;20416;-57
2023/09/05 04:01:12;;;;;;;15.80;14.30;;;14.90;99.90;;;;;;5019417;28;20075;-56
2023/09/05 04:03:38;;;;;;;16.58;14.10;;;14.90;99.90;;;;;;5050497;28;20056;-56
2023/09/05 04:06:03;;;;;;;18.35;16.25;;;14.80;99.90;;;;;;5033788;28;20423;-57
2023/09/05 04:08:29;;;;;;;17.73;15.82;;;14.90;99.90;;;;;;5023596;28;20056;-59
2023/09/05 04:10:59;;;;;;;17.98;14.50;;;14.90;99.90;;;;;;5020414;28;20115;-56
2023/09/05 04:13:26;;;;;;;17.25;15.45;;;14.80;99.90;;;;;;5035761;28;20030;-56
2023/09/05 04:15:52;;;;;;;18.98;14.50;;;14.80;99.90;;;;;;5007206;28;20101;-58
2023/09/05 04:18:18;;;;;;;17.52;15.00;;;14.80;99.90;;;;;;5042144;28;20041;-56
2023/09/05 04:20:44;;;;;;;19.52;17.40;;;14.80;99.90;;;;;;5026639;28;20060;-55
2023/09/05 04:23:10;;;;;;;15.40;13.68;;;14.80;99.90;;;;;;5027827;28;20036;-56
2023/09/05 04:25:39;;;;;;;18.38;16.48;;;14.80;99.90;;;;;;5023213;28;20536;-54
2023/09/05 04:28:06;;;;;;;17.88;15.13;;;14.80;99.90;;;;;;5023939;28;20041;-57
2023/09/05 04:30:35;;;;;;;24.50;16.20;;;14.70;99.90;;;;;;5021958;28;20052;-54
2023/09/05 04:33:06;;;;;;;17.98;16.02;;;14.70;99.90;;;;;;5043240;28;20048;-55
2023/09/05 04:35:32;;;;;;;23.90;16.83;;;14.70;99.90;;;;;;5023919;28;20490;-55
2023/09/05 04:37:58;;;;;;;18.80;14.90;;;14.70;99.90;;;;;;5027164;28;20071;-53
2023/09/05 04:40:24;;;;;;;17.58;15.70;;;14.70;99.90;;;;;;5025923;28;20040;-56
2023/09/05 04:42:49;;;;;;;18.73;16.52;;;14.60;99.90;;;;;;5044336;28;20404;-57
2023/09/05 04:45:15;;;;;;;19.67;17.55;;;14.60;99.90;;;;;;5026096;28;20048;-57
2023/09/05 04:47:41;;;;;;;17.67;15.65;;;14.60;99.90;;;;;;5026880;28;20037;-56
2023/09/05 04:50:08;;;;;;;16.17;14.48;;;14.60;99.90;;;;;;5041546;28;20048;-57
2023/09/05 04:52:34;;;;;;;17.20;15.27;;;14.50;99.90;;;;;;5021033;28;20041;-59
2023/09/05 04:55:00;;;;;;;16.23;13.25;;;14.50;99.90;;;;;;5042172;28;20040;-57
2023/09/05 04:57:27;;;;;;;17.67;14.98;;;14.60;99.90;;;;;;5023328;28;20052;-56
2023/09/05 04:59:57;;;;;;;18.70;16.30;;;14.60;99.90;;;;;;5011361;28;20070;-56
2023/09/05 05:02:24;;;;;;;19.90;15.18;;;14.50;99.90;;;;;;5029312;28;20041;-57
2023/09/05 05:04:50;;;;;;;21.75;16.50;;;14.50;99.90;;;;;;5017711;28;20053;-58
2023/09/05 05:07:16;;;;;;;17.63;15.05;;;14.50;99.90;;;;;;5024685;28;20068;-58
2023/09/05 05:09:42;;;;;;;18.38;15.57;;;14.50;99.90;;;;;;5028060;28;20481;-56
2023/09/05 05:12:09;;;;;;;20.80;16.50;;;14.50;99.90;;;;;;5008203;28;20032;-57
2023/09/05 05:14:35;;;;;;;19.55;16.67;;;14.50;99.90;;;;;;5006144;28;20045;-56
2023/09/05 05:17:02;;;;;;;17.98;15.30;;;14.50;99.90;;;;;;5021976;28;20678;-56
2023/09/05 05:19:27;;;;;;;17.45;14.95;;;14.50;99.90;;;;;;5047717;28;20052;-58
2023/09/05 05:21:53;;;;;;;19.63;15.90;;;14.50;99.90;;;;;;5022029;28;20053;-56
2023/09/05 05:24:19;;;;;;;18.95;15.15;;;14.60;99.90;;;;;;5029309;28;20052;-56
2023/09/05 05:26:45;;;;;;;16.95;13.90;;;14.50;99.90;;;;;;5042363;28;20388;-58
2023/09/05 05:29:12;;;;;;;19.10;14.40;;;14.50;99.90;;;;;;5030261;28;20075;-58
2023/09/05 05:31:39;;;;;;;19.42;14.50;;;14.60;99.90;;;;;;5020812;28;20049;-55
2023/09/05 05:34:05;;;;;;;18.15;15.05;;;14.60;99.90;;;;;;5043741;28;20056;-56
2023/09/05 05:36:31;;;;;;;16.15;14.45;;;14.60;99.90;;;;;;5045742;28;20084;-54
2023/09/05 05:38:58;;;;;;;16.90;14.88;;;14.60;99.90;;;;;;5008146;28;20081;-57
2023/09/05 05:41:26;;;;;;;17.35;14.95;;;14.60;99.90;;;;;;5034038;28;20138;-57
2023/09/05 05:43:52;;;;;;;18.65;15.18;;;14.70;99.90;;;;;;5009835;28;20041;-57
2023/09/05 05:46:18;;;;;;;19.33;14.63;;;14.70;99.90;;;;;;5027334;28;20090;-57
2023/09/05 05:48:44;;;;;;;17.58;13.88;;;14.80;99.90;;;;;;5027092;28;20068;-57
2023/09/05 05:51:11;;;;;;;16.95;14.52;;;14.90;99.90;;;;;;5025106;28;20036;-58
2023/09/05 05:53:37;;;;;;;15.40;13.80;;;14.90;99.90;;;;;;5026673;28;20041;-58
2023/09/05 05:56:03;;;;;;;15.40;13.68;;;15.00;99.90;;;;;;5026522;28;20033;-57
2023/09/05 05:58:29;;;;;;;16.60;14.38;;;15.10;99.90;;;;;;5031560;28;20036;-56
2023/09/05 06:00:55;;;;;;;17.73;15.50;;;15.10;99.90;;;;;;5028055;28;20052;-58
2023/09/05 06:03:21;;;;;;;14.52;13.02;;;15.20;99.90;;;;;;5029151;28;20033;-58
2023/09/05 06:05:48;;;;;;;13.40;12.00;;;15.30;99.90;;;;;;5049007;28;20511;-59
2023/09/05 06:08:14;;;;;;;15.80;13.13;;;15.30;99.90;;;;;;5030438;28;20038;-56
2023/09/05 06:10:40;;;;;;;20.02;14.48;;;15.40;99.90;;;;;;5050609;28;20033;-55
2023/09/05 06:13:06;;;;;;;17.35;13.45;;;15.40;99.90;;;;;;5049497;28;20037;-58
2023/09/05 06:15:33;;;;;;;14.65;13.02;;;15.50;99.90;;;;;;5030885;28;20040;-57
2023/09/05 06:18:00;;;;;;;14.98;13.15;;;15.50;99.90;;;;;;5030938;28;20044;-58
2023/09/05 06:20:26;;;;;;;15.02;13.18;;;15.60;99.90;;;;;;5026025;28;20061;-58
2023/09/05 06:22:51;;;;;;;16.40;13.20;;;15.60;99.90;;;;;;5013397;28;20049;-56
2023/09/05 06:25:17;;;;;;;15.32;12.48;;;15.70;99.90;;;;;;5029217;28;20045;-55
2023/09/05 06:27:43;;;;;;;14.30;12.77;;;15.80;99.90;;;;;;5021281;28;20542;-58
2023/09/05 06:30:10;;;;;;;15.05;13.48;;;15.90;99.90;;;;;;5026886;28;20045;-55
2023/09/05 06:32:36;;;;;;;14.25;12.73;;;16.10;99.90;;;;;;5010270;28;20045;-56
2023/09/05 06:35:02;;;;;;;16.17;13.15;;;16.10;99.90;;;;;;5034326;28;20541;-58
2023/09/05 06:37:30;;;;;;;14.38;12.63;;;16.10;99.90;;;;;;5023726;28;20253;-58
2023/09/05 06:39:56;;;;;;;13.40;12.00;;;16.20;99.90;;;;;;5028675;28;20044;-57
2023/09/05 06:42:23;;;;;;;15.30;12.10;;;16.30;99.90;;;;;;5027929;28;20055;-56
2023/09/05 06:44:49;;;;;;;13.60;11.70;;;16.30;99.90;;;;;;5029566;28;20393;-56
2023/09/05 06:47:15;;;;;;;14.00;12.50;;;16.40;99.90;;;;;;5043571;28;20039;-57
2023/09/05 06:49:40;;;;;;;14.32;12.13;;;16.50;99.90;;;;;;5026991;28;20063;-57
2023/09/05 06:52:06;;;;;;;14.45;12.95;;;16.60;99.90;;;;;;5024404;28;20037;-59
2023/09/05 06:54:32;;;;;;;16.73;12.57;;;16.70;99.90;;;;;;5043499;28;20519;-60
2023/09/05 06:56:58;;;;;;;14.85;11.82;;;16.80;99.90;;;;;;5024839;28;20526;-57
2023/09/05 06:59:27;;;;;;;14.55;12.18;;;16.90;99.90;;;;;;5023599;28;20076;-57
2023/09/05 07:01:54;;;;;;;12.75;11.45;;;17.10;99.90;;;;;;5030486;28;20092;-60
2023/09/05 07:04:20;;;;;;;11.90;10.70;;;17.20;99.90;;;;;;5024757;28;20041;-59
2023/09/05 07:06:47;;;;;;;12.93;10.90;;;17.40;99.90;;;;;;5010836;28;20055;-60
2023/09/05 07:09:14;;;;;;;13.55;10.65;;;17.50;99.90;;;;;;5036170;28;20060;-57
2023/09/05 07:11:40;;;;;;;11.65;10.48;;;17.60;99.90;;;;;;5023921;28;20044;-57
2023/09/05 07:14:07;;;;;;;11.80;10.52;;;17.70;99.90;;;;;;5032883;28;20097;-59
2023/09/05 07:16:33;;;;;;;11.65;10.30;;;17.90;99.90;;;;;;5006563;28;20408;-60
2023/09/05 07:18:59;;;;;;;12.93;10.65;;;18.00;99.90;;;;;;5024575;28;20048;-60
2023/09/05 07:21:24;;;;;;;13.95;11.23;;;18.10;99.90;;;;;;5017671;28;20049;-60
2023/09/05 07:23:50;;;;;;;13.63;9.85;;;18.20;99.90;;;;;;5019868;28;20129;-57
2023/09/05 07:26:17;;;;;;;12.82;10.60;;;18.30;99.90;;;;;;5041845;28;20047;-60
2023/09/05 07:28:46;;;;;;;11.68;10.38;;;18.40;99.90;;;;;;5041805;28;20199;-58
2023/09/05 07:31:14;;;;;;;12.10;10.75;;;18.60;99.90;;;;;;5027213;28;20055;-60
2023/09/05 07:33:40;;;;;;;11.32;9.80;;;18.70;99.90;;;;;;5023070;28;20045;-58
2023/09/05 07:36:06;;;;;;;10.80;9.68;;;18.80;99.90;;;;;;5011199;28;20044;-59
2023/09/05 07:38:32;;;;;;;12.73;10.20;;;18.90;99.90;;;;;;5027704;28;20525;-58
2023/09/05 07:41:05;;;;;;;12.05;10.00;;;19.10;99.90;;;;;;5039805;28;20048;-57
2023/09/05 07:43:33;;;;;;;13.50;10.00;;;19.30;99.90;;;;;;5029198;28;20043;-60
2023/09/05 07:45:59;;;;;;;11.50;9.65;;;19.40;99.90;;;;;;5034924;28;20045;-57
2023/09/05 07:48:25;;;;;;;10.93;9.45;;;19.50;99.90;;;;;;5030231;28;20043;-58
2023/09/05 07:50:51;;;;;;;11.32;9.25;;;19.60;99.90;;;;;;5047036;28;20037;-58
2023/09/05 07:53:17;;;;;;;14.07;10.18;;;19.80;99.90;;;;;;5047801;28;20032;-58
2023/09/05 07:55:42;;;;;;;9.75;8.55;;;19.90;99.90;;;;;;5032249;28;20502;-58
2023/09/05 07:58:10;;;;;;;11.45;9.35;;;20.00;99.90;;;;;;5021570;28;20106;-60
2023/09/05 08:00:36;;;;;;;12.13;8.88;;;20.20;99.90;;;;;;5032031;28;20053;-60
2023/09/05 08:03:03;;;;;;;10.65;8.95;;;20.30;99.90;;;;;;5028545;28;20413;-59
2023/09/05 08:05:29;;;;;;;14.82;8.52;;;20.40;99.90;;;;;;5046309;28;20049;-57
2023/09/05 08:07:55;;;;;;;10.02;8.43;;;20.50;99.90;;;;;;5029664;28;20385;-58
2023/09/05 08:10:22;;;;;;;9.52;7.85;;;20.60;99.90;;;;;;5047621;28;20250;-58
2023/09/05 08:12:47;;;;;;;10.68;7.90;;;20.70;99.90;;;;;;5030333;28;20090;-60
2023/09/05 08:15:14;;;;;;;9.77;7.97;;;20.90;99.90;;;;;;5029668;28;20134;-60
2023/09/05 08:17:39;;;;;;;7.97;6.55;;;21.00;99.90;;;;;;5028618;28;20052;-57
2023/09/05 08:20:06;;;;;;;10.27;7.90;;;21.10;99.90;;;;;;5029575;28;20045;-57
2023/09/05 08:22:32;;;;;;;15.00;8.02;;;21.20;99.90;;;;;;5029428;28;20127;-57
2023/09/05 08:24:58;;;;;;;10.23;6.95;;;21.30;99.90;;;;;;5008946;28;20479;-57
2023/09/05 08:27:28;;;;;;;9.25;7.22;;;21.40;99.90;;;;;;5024917;28;20037;-60
2023/09/05 08:29:56;;;;;;;8.05;7.25;;;21.60;99.90;;;;;;5013158;28;20483;-60
2023/09/05 08:32:22;;;;;;;7.15;6.45;;;21.70;99.90;;;;;;5027282;28;20318;-58
2023/09/05 08:34:48;;;;;;;7.57;6.78;;;21.80;99.90;;;;;;5029286;28;20052;-59
2023/09/05 08:37:14;;;;;;;7.70;6.90;;;22.00;99.90;;;;;;5029453;28;20369;-57
2023/09/05 08:39:39;;;;;;;9.95;6.78;;;22.10;99.90;;;;;;5029036;28;20234;-59
2023/09/05 08:42:08;;;;;;;7.35;6.47;;;22.20;99.90;;;;;;5014904;28;20045;-59
2023/09/05 08:44:40;;;;;;;6.72;6.03;;;22.20;99.90;;;;;;5039182;28;20534;-59
2023/09/05 08:47:06;;;;;;;6.78;5.95;;;22.30;99.90;;;;;;5022446;28;20095;-59
2023/09/05 08:49:32;;;;;;;7.30;5.65;;;22.40;99.90;;;;;;5008664;28;20073;-59
2023/09/05 08:52:04;;;;;;;7.13;5.82;;;22.50;99.90;;;;;;5029914;28;20495;-56
2023/09/05 08:54:30;;;;;;;8.68;5.25;;;22.60;99.90;;;;;;5027747;28;20447;-60
2023/09/05 08:57:02;;;;;;;9.02;5.10;;;22.80;99.90;;;;;;5027724;28;20094;-59
2023/09/05 08:59:31;;;;;;;7.72;5.43;;;23.00;99.90;;;;;;5039235;28;20646;-59
2023/09/05 09:02:01;;;;;;;5.78;4.55;;;23.10;99.90;;;;;;5007568;28;20049;-57
2023/09/05 09:04:28;;;;;;;6.55;5.22;;;23.20;99.90;;;;;;5028084;28;20033;-57
2023/09/05 09:06:55;;;;;;;8.30;6.60;;;23.40;99.90;;;;;;5029316;28;20051;-60
2023/09/05 09:09:34;;;;;;;7.70;6.15;;;23.40;99.90;;;;;;5029480;28;20041;-60
2023/09/05 09:12:01;;;;;;;8.77;5.68;;;23.60;99.90;;;;;;5013911;28;20045;-57
2023/09/05 09:14:26;;;;;;;7.25;5.20;;;23.60;99.90;;;;;;5038612;28;20040;-58
2023/09/05 09:16:53;;;;;;;14.05;5.85;;;23.60;99.90;;;;;;5033203;28;20048;-57
2023/09/05 09:19:19;;;;;;;7.38;5.50;;;23.70;99.90;;;;;;5024320;28;20052;-60
2023/09/05 09:21:47;;;;;;;7.45;5.00;;;23.80;99.90;;;;;;5028894;28;20929;-58
2023/09/05 09:24:15;;;;;;;5.88;5.28;;;23.90;99.90;;;;;;5045599;28;20674;-57
2023/09/05 09:26:42;;;;;;;5.38;4.30;;;24.00;99.90;;;;;;5025956;28;20316;-57
2023/09/05 09:29:09;;;;;;;6.32;4.65;;;24.10;99.90;;;;;;5029251;28;20120;-54
2023/09/05 09:31:37;;;;;;;5.93;4.70;;;24.20;99.90;;;;;;5034983;28;20025;-57
2023/09/05 09:34:03;;;;;;;6.28;4.30;;;24.40;99.90;;;;;;5052118;28;20475;-60
2023/09/05 09:36:37;;;;;;;6.60;3.85;;;24.50;99.90;;;;;;5031598;28;20045;-59
2023/09/05 09:39:12;;;;;;;5.55;4.22;;;24.70;99.90;;;;;;5021391;28;20124;-57
2023/09/05 09:41:49;;;;;;;4.40;3.53;;;24.80;99.90;;;;;;5026544;28;20056;-58
2023/09/05 09:44:28;;;;;;;6.60;4.00;;;25.00;99.90;;;;;;5026574;28;20546;-57
2023/09/05 09:46:55;;;;;;;4.95;3.35;;;25.10;99.90;;;;;;5023229;28;20125;-58
2023/09/05 09:49:23;;;;;;;4.13;3.15;;;25.20;99.90;;;;;;5049863;28;20609;-57
2023/09/05 09:51:55;;;;;;;5.40;2.83;;;25.30;99.90;;;;;;5012338;28;20049;-58
2023/09/05 09:54:29;;;;;;;5.05;2.40;;;25.40;99.90;;;;;;5023166;28;20110;-59
2023/09/05 09:56:59;;;;;;;5.85;2.85;;;25.50;99.90;;;;;;5023015;28;20040;-58
2023/09/05 09:59:27;;;;;;;4.78;2.60;;;25.60;99.90;;;;;;5036631;28;20047;-58
2023/09/05 10:01:55;;;;;;;5.32;3.00;;;25.70;99.90;;;;;;5040896;28;20125;-59
2023/09/05 10:04:22;;;;;;;3.03;2.53;;;25.80;99.90;;;;;;5045504;28;20037;-61
2023/09/05 10:06:50;;;;;;;5.28;3.05;;;25.90;99.90;;;;;;5023568;28;21840;-58
2023/09/05 10:09:17;;;;;;;6.90;3.20;;;26.00;99.90;;;;;;5023120;28;20037;-58
2023/09/05 10:11:45;;;;;;;3.22;2.35;;;26.00;99.90;;;;;;5021562;28;20036;-58
2023/09/05 10:14:13;;;;;;;3.53;2.75;;;26.10;99.90;;;;;;5022939;28;20060;-58
2023/09/05 10:16:41;;;;;;;4.53;2.65;;;26.30;99.90;;;;;;5038420;28;20049;-58
2023/09/05 10:19:09;;;;;;;3.83;2.42;;;26.30;99.90;;;;;;5049085;28;20563;-60
2023/09/05 10:21:36;;;;;;;5.18;1.95;;;26.40;99.90;;;;;;5024026;28;20077;-60
2023/09/05 10:24:05;;;;;;;5.18;2.70;;;26.40;99.60;;;;;;5023611;28;20046;-59
2023/09/05 10:26:31;;;;;;;4.03;2.53;;;26.40;99.00;;;;;;5049895;28;20064;-56
2023/09/05 10:28:58;;;;;;;3.08;2.40;;;26.50;99.90;;;;;;5044811;28;20033;-57
2023/09/05 10:31:25;;;;;;;6.32;2.35;;;26.70;99.80;;;;;;5046488;28;20066;-60
2023/09/05 10:33:51;;;;;;;3.13;2.13;;;26.80;98.70;;;;;;5026775;28;20247;-60
2023/09/05 10:36:42;;;;;;;3.70;2.10;;;26.90;99.00;;;;;;5043791;28;20084;-59
2023/09/05 10:39:22;;;;;;;4.63;2.35;;;26.90;98.00;;;;;;5023127;28;20251;-57
2023/09/05 10:41:48;;;;;;;3.75;1.92;;;27.00;98.10;;;;;;5024611;28;20102;-59
2023/09/05 10:44:15;;;;;;;4.25;2.25;;;27.00;98.30;;;;;;5027396;28;20037;-59
2023/09/05 10:46:40;;;;;;;4.95;2.50;;;27.20;98.70;;;;;;5045131;28;20048;-60
2023/09/05 10:49:16;;;;;;;3.00;2.00;;;27.30;98.00;;;;;;5022798;28;20041;-59
2023/09/05 10:52:20;;;;;;;3.45;2.60;;;27.30;97.50;;;;;;5024133;28;20473;-60
2023/09/05 10:54:46;;;;;;;6.18;2.67;;;27.40;97.30;;;;;;5026011;28;20045;-58
2023/09/05 10:57:50;;;;;;;5.13;2.35;;;27.50;98.00;;;;;;5040822;28;20051;-58
2023/09/05 11:00:22;;;;;;;3.67;2.28;;;27.60;96.90;;;;;;4968794;28;20060;-56
2023/09/05 11:02:49;;;;;;;4.27;2.13;;;27.60;96.90;;;;;;5018120;28;20272;-57
2023/09/05 11:05:19;;;;;;;2.95;1.77;;;27.70;97.10;;;;;;5027008;28;20395;-59
2023/09/05 11:07:50;;;;;;;3.25;1.85;;;27.80;96.80;;;;;;5024388;28;20438;-58
2023/09/05 11:10:37;;;;;;;3.33;1.90;;;27.90;97.20;;;;;;5023319;28;20120;-58
2023/09/05 11:13:08;;;;;;;3.45;2.17;;;28.10;97.00;;;;;;5025763;28;20484;-60
2023/09/05 11:15:43;;;;;;;3.58;2.10;;;28.20;96.80;;;;;;5029716;28;20041;-58
2023/09/05 11:18:10;;;;;;;3.55;1.88;;;28.20;96.50;;;;;;5041275;28;20356;-57
2023/09/05 11:20:41;;;;;;;2.85;1.75;;;28.20;96.40;;;;;;5028684;28;20043;-57
2023/09/05 11:23:12;;;;;;;2.70;1.85;;;28.20;96.60;;;;;;5046314;28;20036;-60
2023/09/05 11:25:46;;;;;;;3.50;2.00;;;28.30;96.10;;;;;;5046005;28;20059;-58
2023/09/05 11:28:12;;;;;;;3.33;2.33;;;28.40;96.00;;;;;;5027015;28;20041;-58
2023/09/05 11:30:42;;;;;;;2.97;1.95;;;28.30;96.20;;;;;;5033061;28;20138;-58
2023/09/05 11:33:09;;;;;;;2.63;1.85;;;28.50;96.80;;;;;;5016835;28;20121;-58
2023/09/05 11:35:40;;;;;;;5.32;2.00;;;28.60;96.40;;;;;;5016111;28;20040;-60
2023/09/05 11:38:06;;;;;;;3.92;2.35;;;28.70;96.00;;;;;;5025969;28;20076;-58
2023/09/05 11:40:32;;;;;;;4.68;2.40;;;28.70;95.40;;;;;;5011588;28;20088;-58
2023/09/05 11:43:15;;;;;;;2.45;2.08;;;28.70;95.50;;;;;;5023798;28;20326;-58
2023/09/05 11:45:43;;;;;;;3.20;2.20;;;28.70;95.30;;;;;;5037550;28;20033;-60
2023/09/05 11:48:11;;;;;;;2.83;2.33;;;28.90;96.00;;;;;;5023725;28;20048;-60
2023/09/05 11:50:42;;;;;;;2.50;1.70;;;29.00;95.80;;;;;;5031048;28;20434;-59
2023/09/05 11:53:11;;;;;;;2.30;1.92;;;29.10;95.80;;;;;;5011004;28;20132;-60
2023/09/05 11:55:39;;;;;;;3.05;1.90;;;29.30;96.20;;;;;;5042005;28;20055;-59
2023/09/05 11:58:07;;;;;;;3.95;1.83;;;29.40;95.50;;;;;;5022043;28;20077;-60
2023/09/05 12:00:44;;;;;;;3.40;2.20;;;29.40;94.80;;;;;;5015609;28;20094;-60
2023/09/05 12:03:15;;;;;;;4.22;2.30;;;29.40;94.80;;;;;;5012326;28;20166;-57
2023/09/05 12:05:42;;;;;;;3.65;2.03;;;29.30;94.60;;;;;;5020148;28;20056;-58
2023/09/05 12:08:08;;;;;;;3.22;1.90;;;29.40;94.90;;;;;;5026863;28;20558;-60
2023/09/05 12:10:42;;;;;;;3.25;1.80;;;29.40;94.80;;;;;;5043155;28;20040;-59
2023/09/05 12:13:08;;;;;;;2.85;2.03;;;29.70;94.90;;;;;;5020688;28;20045;-57
2023/09/05 12:15:36;;;;;;;4.15;1.90;;;29.70;94.70;;;;;;5027061;28;20040;-60
2023/09/05 12:18:06;;;;;;;3.97;1.92;;;29.90;95.00;;;;;;5041676;28;20492;-57
2023/09/05 12:20:33;;;;;;;3.72;1.80;;;30.00;94.20;;;;;;5045447;28;20032;-57
2023/09/05 12:23:00;;;;;;;4.20;1.85;;;29.80;93.70;;;;;;5025775;28;20462;-60
2023/09/05 12:25:28;;;;;;;2.80;1.60;;;29.80;94.40;;;;;;5026137;28;20060;-60
2023/09/05 12:27:55;;;;;;;3.13;1.70;;;30.00;93.90;;;;;;5048566;28;20033;-56
2023/09/05 12:30:27;;;;;;;2.03;1.40;;;30.00;93.60;;;;;;5030199;28;20032;-57
2023/09/05 12:32:58;;;;;;;3.83;1.88;;;30.00;92.70;;;;;;5029667;28;20041;-58
2023/09/05 12:35:25;;;;;;;3.97;1.58;;;29.90;92.60;;;;;;5012171;28;20480;-61
2023/09/05 12:37:53;;;;;;;2.83;1.63;;;29.90;92.60;;;;;;5020883;28;20049;-58
2023/09/05 12:40:21;;;;;;;3.92;1.90;;;29.90;92.90;;;;;;5000191;28;20504;-58
2023/09/05 12:42:49;;;;;;;2.90;1.90;;;30.00;93.30;;;;;;5027343;28;20053;-60
2023/09/05 12:45:15;;;;;;;2.70;1.90;;;30.10;93.40;;;;;;5026796;28;20532;-57